Thursday, May 25, 2017, 8:26 AM EDT

KOKV, Winchester Regional

Location: Winchester, VA, United States Lat: 39.15
Local Time: 8:26 AM EDT (12:26 GMT) Lon: -78.15
Time Zone: US/Eastern Elev: 728 ft

Show me the last for .
Show Decoded

2017-05-25 08:15 METAR KOKV 251215Z AUTO 04005KT 10SM OVC003 12/12 A2949 RMK AO2 =
2017-05-25 07:35 METAR KOKV 251135Z AUTO 04004KT 10SM -DZ BKN003 BKN015 OVC110 12/12 A2949 RMK
                 AO2 P0001 =
2017-05-25 07:15 METAR KOKV 251115Z AUTO 00000KT 10SM RA SCT003 BKN090 OVC110 12/12 A2951 RMK AO2
                 =
2017-05-25 06:55 METAR KOKV 251055Z AUTO 04004KT 10SM -RA SCT050 BKN090 OVC110 12/11 A2951 RMK
                 AO2 P0023 =
2017-05-25 06:35 METAR KOKV 251035Z AUTO 01003KT 4SM +RA SCT011 BKN031 OVC065 12/11 A2953 RMK AO2
                 P0021 =
2017-05-25 06:15 METAR KOKV 251015Z AUTO 26005KT 4SM +RA SCT008 BKN012 OVC021 12/12 A2955 RMK AO2
                 P0011 =
2017-05-25 05:55 METAR KOKV 250955Z AUTO 00000KT 3SM RA BKN006 OVC012 12/11 A2952 RMK AO2 P0010 =
2017-05-25 05:35 METAR KOKV 250935Z AUTO 00000KT 7SM RA OVC006 12/11 A2952 RMK AO2 P0003 =
2017-05-25 05:15 METAR KOKV 250915Z AUTO 00000KT 5SM -RA OVC006 12/11 A2950 RMK AO2 P0001 =
2017-05-25 04:55 METAR KOKV 250855Z AUTO 06003KT 10SM -RA OVC008 12/11 A2951 RMK AO2 P0008 =
2017-05-25 04:35 METAR KOKV 250835Z AUTO 08003KT 7SM -RA BKN008 OVC011 12/11 A2952 RMK AO2 P0006
                 =
2017-05-25 04:15 METAR KOKV 250815Z AUTO 07004KT 7SM +RA BKN008 OVC014 12/11 A2952 RMK AO2 P0003
                 =
2017-05-25 03:55 METAR KOKV 250755Z AUTO 08004KT 7SM +RA OVC006 12/11 A2953 RMK AO2 P0009 =
2017-05-25 03:35 METAR KOKV 250735Z AUTO 07006KT 5SM RA OVC004 12/11 A2953 RMK AO2 P0005 =
2017-05-25 03:15 METAR KOKV 250715Z AUTO 08005KT 5SM RA OVC004 12/11 A2955 RMK AO2 =
2017-05-25 02:55 METAR KOKV 250655Z AUTO 09006KT 5SM -RA OVC004 12/11 A2956 RMK AO2 P0011 =
2017-05-25 02:35 METAR KOKV 250635Z AUTO 09007KT 4SM -RA OVC006 12/12 A2957 RMK AO2 P0009 =
2017-05-25 02:15 METAR KOKV 250615Z AUTO 08006G14KT 5SM RA BKN006 OVC011 12/12 A2957 RMK AO2
                 P0004 =
2017-05-25 01:55 METAR KOKV 250555Z AUTO 09010G14KT 5SM -RA OVC006 12/12 A2958 RMK AO2 P0006 =
2017-05-25 01:30 METAR KOKV 250530Z AUTO 09006G15KT 10SM RA BKN006 OVC011 13/12 A2960 RMK AO2
                 P0001 =
2017-05-25 01:15 METAR KOKV 250515Z AUTO 10006KT 10SM -RA OVC006 13/12 A2960 RMK AO2 =
2017-05-25 00:55 METAR KOKV 250455Z AUTO 07003KT 10SM -DZ OVC008 13/12 A2962 RMK AO2 P0007 =
2017-05-25 00:35 METAR KOKV 250435Z AUTO 09006KT 7SM -RA OVC008 13/12 A2962 RMK AO2 P0006 =
2017-05-25 00:15 METAR KOKV 250415Z AUTO 10003KT 7SM RA BKN008 BKN013 OVC020 13/12 A2963 RMK AO2
                 P0002 =
2017-05-24 23:55 METAR KOKV 250355Z AUTO 08006KT 7SM RA SCT009 BKN016 OVC023 13/12 A2963 RMK AO2
                 P0013 =
2017-05-24 23:35 METAR KOKV 250335Z AUTO 10008KT 7SM -RA SCT006 BKN010 OVC015 13/12 A2966 RMK AO2
                 P0009 =
2017-05-24 23:15 METAR KOKV 250315Z AUTO 10006KT 5SM RA BKN010 OVC015 13/13 A2967 RMK AO2 P0006 =
2017-05-24 22:55 METAR KOKV 250255Z AUTO 09004KT 5SM +RA OVC012 13/13 A2967 RMK AO2 P0012 =
2017-05-24 22:35 METAR KOKV 250235Z AUTO 08004KT 4SM RA OVC012 13/13 A2968 RMK AO2 P0006 =
2017-05-24 22:15 METAR KOKV 250215Z AUTO 00000KT 10SM RA OVC012 13/13 A2968 RMK AO2 P0001 =
2017-05-24 21:55 METAR KOKV 250155Z AUTO 13005KT 5SM +RA OVC012 14/13 A2969 RMK AO2 P0006 =
2017-05-24 21:35 METAR KOKV 250135Z AUTO 09006KT 10SM DZ OVC014 14/12 A2967 RMK AO2 =
2017-05-24 21:15 METAR KOKV 250115Z AUTO 09005KT 10SM OVC016 14/12 A2967 RMK AO2 =
2017-05-24 20:55 METAR KOKV 250055Z AUTO 11004KT 10SM OVC016 14/12 A2968 RMK AO2 =
2017-05-24 20:35 METAR KOKV 250035Z AUTO 10007KT 10SM SCT005 SCT009 OVC018 14/13 A2968 RMK AO2 =
2017-05-24 20:15 METAR KOKV 250015Z AUTO 10006G15KT 4SM -DZ BKN007 OVC015 13/13 A2968 RMK AO2 =
2017-05-24 19:55 METAR KOKV 242355Z AUTO 10009KT 2 1/2SM BR OVC005 13/13 A2969 RMK AO2 =
2017-05-24 19:35 METAR KOKV 242335Z AUTO 10009KT 2 1/2SM -RA OVC005 14/13 A2969 RMK AO2 =
2017-05-24 19:15 METAR KOKV 242315Z AUTO 10007KT 2SM BR OVC005 14/13 A2969 RMK AO2 =
2017-05-24 18:55 METAR KOKV 242255Z AUTO 11007KT 2SM BR OVC005 14/13 A2969 RMK AO2 =
2017-05-24 18:35 METAR KOKV 242235Z AUTO 08004KT 1 1/2SM RA OVC005 14/13 A2969 RMK AO2 =
2017-05-24 18:15 METAR KOKV 242215Z AUTO 11006KT 1 3/4SM -DZ OVC007 14/13 A2969 RMK AO2 =
2017-05-24 17:55 METAR KOKV 242155Z AUTO 11006KT 2 1/2SM -RA OVC007 14/13 A2969 RMK AO2 =
2017-05-24 17:35 METAR KOKV 242135Z AUTO 12005KT 2 1/2SM -DZ BKN009 OVC012 14/13 A2971 RMK AO2 =
2017-05-24 17:15 METAR KOKV 242115Z AUTO 11006KT 2SM RA OVC009 14/13 A2971 RMK AO2 =
2017-05-24 16:55 METAR KOKV 242055Z AUTO 10006KT 7SM OVC013 15/13 A2970 RMK AO2 =
2017-05-24 16:35 METAR KOKV 242035Z AUTO 13009G15KT 10SM RA OVC015 15/13 A2970 RMK AO2 =
2017-05-24 16:15 METAR KOKV 242015Z AUTO 12010KT 10SM OVC015 15/12 A2971 RMK AO2 =
2017-05-24 15:55 METAR KOKV 241955Z AUTO 14009KT 10SM OVC017 16/12 A2971 RMK AO2 =
2017-05-24 15:35 METAR KOKV 241935Z AUTO 12007KT 10SM OVC019 16/13 A2971 RMK AO2 =
2017-05-24 15:15 METAR KOKV 241915Z AUTO 13005KT 10SM OVC021 16/12 A2971 RMK AO2 =
2017-05-24 14:55 METAR KOKV 241855Z AUTO 15006KT 10SM OVC023 16/13 A2972 RMK AO2 =
2017-05-24 14:35 METAR KOKV 241835Z AUTO 14007KT 10SM OVC021 16/12 A2971 RMK AO2 =
2017-05-24 14:15 METAR KOKV 241815Z AUTO 14009KT 10SM OVC019 16/12 A2972 RMK AO2 =
2017-05-24 13:55 METAR KOKV 241755Z AUTO 12008KT 10SM BKN019 BKN028 OVC050 16/12 A2972 RMK AO2 =
2017-05-24 13:35 METAR KOKV 241735Z AUTO 13007KT 10SM BKN019 BKN027 OVC034 16/13 A2972 RMK AO2 =
2017-05-24 13:15 METAR KOKV 241715Z AUTO 12008KT 10SM BKN021 OVC026 16/12 A2972 RMK AO2 =
2017-05-24 12:55 METAR KOKV 241655Z AUTO 12007KT 10SM OVC025 16/12 A2972 RMK AO2 =
2017-05-24 12:35 METAR KOKV 241635Z AUTO 13007KT 10SM BKN023 OVC029 15/12 A2972 RMK AO2 =
2017-05-24 12:15 METAR KOKV 241615Z AUTO 12007KT 10SM BKN025 OVC032 16/12 A2973 RMK AO2 =
2017-05-24 11:55 METAR KOKV 241555Z AUTO 13009KT 10SM SCT015 OVC023 16/12 A2973 RMK AO2 =
2017-05-24 11:35 METAR KOKV 241535Z AUTO 14007KT 10SM SCT014 BKN019 OVC047 16/12 A2973 RMK AO2 =
2017-05-24 11:15 METAR KOKV 241515Z AUTO 13006KT 10SM SCT009 BKN016 OVC047 15/13 A2973 RMK AO2 =
2017-05-24 10:55 METAR KOKV 241455Z AUTO 16005KT 10SM OVC009 15/13 A2973 RMK AO2 =
2017-05-24 10:35 METAR KOKV 241435Z AUTO 15004KT 7SM BKN007 BKN011 OVC018 15/13 A2973 RMK AO2 =
2017-05-24 10:15 METAR KOKV 241415Z AUTO 13004KT 7SM BKN005 OVC010 14/13 A2973 RMK AO2 =
2017-05-24 09:55 METAR KOKV 241355Z AUTO 15004KT 10SM OVC007 13/12 A2974 RMK AO2 =
2017-05-24 09:35 METAR KOKV 241335Z AUTO 15003KT 10SM OVC005 13/12 A2974 RMK AO2 =
2017-05-24 09:15 METAR KOKV 241315Z AUTO 11005KT 4SM BR OVC005 13/13 A2973 RMK AO2 =
2017-05-24 08:55 METAR KOKV 241255Z AUTO 11005KT 2SM -DZ OVC005 13/12 A2974 RMK AO2 P0001 =
2017-05-24 08:35 METAR KOKV 241235Z AUTO 09005KT 1 1/2SM DZ OVC003 13/12 A2973 RMK AO2 P0001 =

Support USWX by starting your Amazon purchase here.